This is the latest recevied weather packets stored in our database for station/object M3SXA-5. If no packets are shown the sender has not sent any weather packets the latest 10 day(s).
| Time | Temp. | Humidity | Pressure | Rain* | Wind** | Luminosity | Snow |
|---|---|---|---|---|---|---|---|
| 1777356909 | 7.78° C | 89% | 1026.7 hPa | 0 mm | - | - | - |
| 1777356010 | 7.78° C | 89% | 1026.6 hPa | 0 mm | - | - | - |
| 1777353304 | 8.33° C | 93% | 1026.1 hPa | 0 mm | - | - | - |
| 1777348862 | 8.33° C | 94% | 1025.5 hPa | 0 mm | - | - | - |
| 1777347058 | 7.78° C | 94% | 1025.6 hPa | 0 mm | - | - | - |
| 1777341654 | 7.78° C | 90% | 1026 hPa | 0 mm | - | - | - |
| 1777337142 | 7.78° C | 90% | 1026.3 hPa | 0 mm | - | - | - |
| 1777336239 | 7.78° C | 91% | 1026.4 hPa | 0 mm | - | - | - |
| 1777331727 | 8.89° C | 92% | 1025.9 hPa | 0 mm | - | - | - |
| 1777327223 | 9.44° C | 90% | 1025.9 hPa | 0.51 mm | - | - | - |
| 1777324519 | 10° C | 89% | 1025.8 hPa | 1.27 mm | - | - | - |
| 1777319117 | 11.11° C | 86% | 1025.9 hPa | 2.29 mm | - | - | - |
| 1777312811 | 16.67° C | 56% | 1023.7 hPa | 0 mm | - | - | - |
| 1777310119 | 17.78° C | 53% | 1023.7 hPa | 0 mm | - | - | - |
| 1777309210 | 17.78° C | 54% | 1023.9 hPa | 0 mm | - | - | - |
| 1777301173 | 20.56° C | 39% | 1024.1 hPa | 0 mm | - | - | - |
| 1777286738 | 20° C | 39% | 1025.9 hPa | 0 mm | - | - | - |
| 1777282230 | 17.78° C | 49% | 1026.2 hPa | 0 mm | - | - | - |
| 1777281328 | 17.78° C | 49% | 1026.4 hPa | 0 mm | - | - | - |
| 1777279518 | 17.22° C | 51% | 1026.3 hPa | 0 mm | - | - | - |
| 1777278616 | 16.67° C | 53% | 1026.2 hPa | 0 mm | - | - | - |
| 1777270552 | 7.78° C | 87% | 1026.4 hPa | 0 mm | - | - | - |
| 1777255229 | 7.22° C | 85% | 1026.1 hPa | 0 mm | - | - | - |
| 1777250715 | 8.89° C | 82% | 1026.7 hPa | 0 mm | - | - | - |
| 1777249815 | 8.33° C | 83% | 1026.6 hPa | 0 mm | - | - | - |
* Rain latest hour (hover to see other rain measurements)
** Current wind speed in m/s (hover to see current wind gust speed)